createdAt,value
2023-03-20T00:00:07.063Z,47.3
2023-03-20T00:05:08.412Z,64
2023-03-20T00:10:06.789Z,57.7
2023-03-20T00:15:06.872Z,70.2
2023-03-20T00:20:06.658Z,45.9
2023-03-20T00:25:07.051Z,50.4
2023-03-20T00:30:06.425Z,51.4
2023-03-20T00:35:06.840Z,155.7
2023-03-20T00:40:06.196Z,111.3
2023-03-20T00:45:06.534Z,79.5
2023-03-20T00:50:06.939Z,63.7
2023-03-20T00:55:06.369Z,74.2
2023-03-20T01:00:07.009Z,47
2023-03-20T01:05:06.962Z,54.5
2023-03-20T01:10:06.427Z,71.2
2023-03-20T01:15:06.840Z,52.3
2023-03-20T01:20:06.394Z,62.4
2023-03-20T01:25:06.703Z,79.6
2023-03-20T01:30:06.210Z,73.1
2023-03-20T01:35:06.572Z,66.5
2023-03-20T01:40:07.060Z,71.2
2023-03-20T01:45:06.735Z,42.5
2023-03-20T01:50:06.194Z,52.9
2023-03-20T01:55:06.498Z,55.3
2023-03-20T02:00:06.914Z,44.9
2023-03-20T02:05:06.884Z,55.9
2023-03-20T02:10:06.179Z,83.7
2023-03-20T02:15:06.524Z,60.8
2023-03-20T02:20:07.001Z,70.2
2023-03-20T02:25:06.458Z,81.3
2023-03-20T02:30:06.810Z,45.4
2023-03-20T02:35:06.946Z,37
2023-03-20T02:40:06.179Z,48.8
2023-03-20T02:45:06.158Z,61.6
2023-03-20T02:50:06.686Z,66
2023-03-20T02:55:06.512Z,54.3
2023-03-20T03:00:06.426Z,46.3
2023-03-20T03:05:07.025Z,36.3
2023-03-20T03:10:06.538Z,54.3
2023-03-20T03:15:06.322Z,44.1
2023-03-20T03:20:06.323Z,32.7
2023-03-20T03:25:06.576Z,59.7
2023-03-20T03:30:06.341Z,39.6
2023-03-20T03:35:06.392Z,45.1
2023-03-20T03:40:06.841Z,41.2
2023-03-20T03:45:06.373Z,45.7
2023-03-20T03:50:06.336Z,43.6
2023-03-20T03:55:06.367Z,61.9
2023-03-20T04:00:06.735Z,44.6
2023-03-20T04:10:07.043Z,36.9
2023-03-20T04:15:06.160Z,32.8
2023-03-20T04:20:06.623Z,42.9
2023-03-20T04:25:06.935Z,33.7
2023-03-20T04:30:06.236Z,38.9
2023-03-20T04:35:06.631Z,33.3
2023-03-20T04:40:06.947Z,44.9
2023-03-20T04:45:06.339Z,55.6
2023-03-20T04:50:06.615Z,56.8
2023-03-20T04:55:06.925Z,45.9
2023-03-20T05:00:06.458Z,39.6
2023-03-20T05:05:06.764Z,49.2
2023-03-20T05:10:06.963Z,50.3
2023-03-20T05:15:06.372Z,48.3
2023-03-20T05:20:06.736Z,42.1
2023-03-20T05:25:07.071Z,58.7
2023-03-20T05:30:06.539Z,39.7
2023-03-20T05:35:06.873Z,49.7
2023-03-20T05:40:06.361Z,52.8
2023-03-20T05:45:06.714Z,47.2
2023-03-20T05:50:06.185Z,54.7
2023-03-20T05:55:06.481Z,49.8
2023-03-20T06:00:06.965Z,41.7
2023-03-20T06:05:06.164Z,55.5
2023-03-20T06:10:06.580Z,61.8
2023-03-20T06:15:06.950Z,62.3
2023-03-20T06:20:06.361Z,60.9
2023-03-20T06:25:06.783Z,52.6
2023-03-20T06:30:07.017Z,72
2023-03-20T06:35:06.342Z,61.7
2023-03-20T06:40:06.633Z,47.4
2023-03-20T06:45:07.100Z,51.7
2023-03-20T06:50:06.578Z,46
2023-03-20T06:55:06.859Z,65.1
2023-03-20T07:00:06.201Z,54.5
2023-03-20T07:05:06.219Z,37.2
2023-03-20T07:10:06.480Z,39.6
2023-03-20T07:15:06.915Z,40.3
2023-03-20T07:20:06.322Z,36.8
2023-03-20T07:25:06.732Z,45
2023-03-20T07:30:06.636Z,32.1
2023-03-20T07:35:07.085Z,45.8
2023-03-20T07:40:06.518Z,28.8
2023-03-20T07:45:06.905Z,30.1
2023-03-20T07:50:06.197Z,42.5
2023-03-20T07:55:06.450Z,27.8
2023-03-20T08:00:06.989Z,35.7
2023-03-20T08:05:06.979Z,27.4
2023-03-20T08:10:06.141Z,30
2023-03-20T08:15:06.415Z,31.8
2023-03-20T08:20:06.739Z,31.1
2023-03-20T08:25:07.058Z,28.4
2023-03-20T08:30:06.460Z,24.6
2023-03-20T08:35:06.775Z,14.9
2023-03-20T08:40:06.335Z,13.4
2023-03-20T08:45:06.609Z,16.2
2023-03-20T08:50:07.026Z,13.6
2023-03-20T08:55:06.453Z,13.9
2023-03-20T09:00:06.916Z,18.6
2023-03-20T09:05:06.577Z,12.5
2023-03-20T09:10:06.977Z,11.7
2023-03-20T09:15:06.364Z,15.5
2023-03-20T09:20:06.741Z,17.8
2023-03-20T09:25:07.047Z,10.5
2023-03-20T09:30:06.301Z,16.8
2023-03-20T09:35:06.733Z,15.7
2023-03-20T09:40:06.078Z,17.2
2023-03-20T09:45:06.811Z,22
2023-03-20T09:50:06.488Z,24.3
2023-03-20T09:55:07.038Z,22.3
2023-03-20T10:00:06.618Z,21
2023-03-20T10:05:06.491Z,17.4
2023-03-20T10:10:06.621Z,19.1
2023-03-20T10:15:07.016Z,15
2023-03-20T10:20:06.290Z,17.8
2023-03-20T10:25:06.674Z,13.7
2023-03-20T10:30:06.387Z,11.7
2023-03-20T10:35:06.240Z,10.9
2023-03-20T10:40:06.790Z,16.4
2023-03-20T10:45:06.245Z,19.8
2023-03-20T10:50:06.971Z,14.4
2023-03-20T10:55:06.092Z,10.3
2023-03-20T11:00:06.875Z,14.3
2023-03-20T11:05:06.400Z,14.9
2023-03-20T11:10:06.840Z,18.2
2023-03-20T11:15:06.213Z,18.1
2023-03-20T11:20:06.556Z,12
2023-03-20T11:25:07.031Z,11.5
2023-03-20T11:30:06.184Z,18.6
2023-03-20T11:35:06.183Z,11.9
2023-03-20T11:40:06.542Z,12.1
2023-03-20T11:45:06.928Z,11.2
2023-03-20T11:50:06.477Z,10.3
2023-03-20T11:55:06.719Z,20.1
2023-03-20T12:00:06.240Z,9.9
2023-03-20T12:05:06.924Z,8.1
2023-03-20T12:10:06.583Z,6.6
2023-03-20T12:15:06.783Z,17.1
2023-03-20T12:20:06.237Z,16.2
2023-03-20T12:25:07.021Z,9.1
2023-03-20T12:30:06.393Z,8.7
2023-03-20T12:35:06.472Z,20
2023-03-20T12:40:06.668Z,12.5
2023-03-20T12:45:06.324Z,21.5
2023-03-20T12:50:06.506Z,8.9
2023-03-20T12:55:06.645Z,8.3
2023-03-20T13:00:06.358Z,23
2023-03-20T13:05:06.280Z,7.1
2023-03-20T13:10:06.845Z,9.9
2023-03-20T13:15:06.105Z,7.9
2023-03-20T13:20:06.947Z,11
2023-03-20T13:25:06.461Z,16.3
2023-03-20T13:30:06.591Z,11.5
2023-03-20T13:35:06.161Z,8.4
2023-03-20T13:40:06.453Z,18.6
2023-03-20T13:45:06.689Z,16.8
2023-03-20T13:50:06.549Z,8.4
2023-03-20T13:55:06.301Z,13.7
2023-03-20T14:00:06.585Z,11.5
2023-03-20T14:05:06.556Z,13.3
2023-03-20T14:10:07.051Z,11.1
2023-03-20T14:15:07.026Z,10.3
2023-03-20T14:20:06.171Z,12.7
2023-03-20T14:25:06.626Z,15.2
2023-03-20T14:30:07.009Z,14.1
2023-03-20T14:35:06.983Z,10.3
2023-03-20T14:40:06.989Z,10.9
2023-03-20T14:45:06.379Z,10.3
2023-03-20T14:50:07.037Z,18.9
2023-03-20T14:55:06.953Z,17
2023-03-20T15:00:06.615Z,14.4
2023-03-20T15:05:06.761Z,14.8
2023-03-20T15:10:06.203Z,16.4
2023-03-20T15:15:06.582Z,20.9
2023-03-20T15:20:06.916Z,19
2023-03-20T15:25:06.229Z,14.2
2023-03-20T15:30:06.415Z,18.4
2023-03-20T15:35:06.852Z,16.5
2023-03-20T15:40:06.147Z,17.6
2023-03-20T15:45:06.570Z,15.9
2023-03-20T15:50:06.883Z,14.1
2023-03-20T15:55:06.718Z,11.4
2023-03-20T16:00:06.287Z,15.7
2023-03-20T16:05:06.389Z,37.2
2023-03-20T16:10:06.493Z,18.3
2023-03-20T16:15:06.890Z,19
2023-03-20T16:20:06.217Z,19.3
2023-03-20T16:25:06.709Z,25.5
2023-03-20T16:30:06.613Z,24.4
2023-03-20T16:35:07.054Z,27.6
2023-03-20T16:40:06.287Z,29.8
2023-03-20T16:45:07.060Z,28.9
2023-03-20T16:50:06.326Z,25.4
2023-03-20T16:55:06.692Z,27.1
2023-03-20T17:00:06.946Z,30
2023-03-20T17:05:06.764Z,31.1
2023-03-20T17:10:06.400Z,25.1
2023-03-20T17:15:06.284Z,36.3
2023-03-20T17:20:06.637Z,33
2023-03-20T17:25:07.056Z,26.3
2023-03-20T17:30:06.438Z,37.9
2023-03-20T17:35:06.831Z,32.1
2023-03-20T17:40:06.247Z,34.9
2023-03-20T17:45:06.480Z,28.5
2023-03-20T17:50:06.835Z,33.9
2023-03-20T17:55:06.102Z,26.1
2023-03-20T18:00:06.479Z,31.8
2023-03-20T18:05:06.732Z,36.4
2023-03-20T18:10:06.996Z,47.8
2023-03-20T18:15:06.450Z,30.7
2023-03-20T18:20:06.791Z,43.6
2023-03-20T18:25:06.244Z,34.5
2023-03-20T18:30:06.573Z,37.6
2023-03-20T18:35:06.482Z,45.7
2023-03-20T18:40:06.902Z,97.1
2023-03-20T18:45:06.702Z,100.3
2023-03-20T18:50:07.097Z,32.9
2023-03-20T18:55:06.891Z,28.8
2023-03-20T19:00:06.339Z,42.6
2023-03-20T19:05:06.539Z,22.4
2023-03-20T19:10:06.740Z,31.3
2023-03-20T19:15:06.156Z,23.4
2023-03-20T19:20:06.632Z,35.3
2023-03-20T19:25:06.166Z,28.6
2023-03-20T19:30:06.464Z,31.1
2023-03-20T19:35:07.021Z,37.3
2023-03-20T19:40:06.642Z,34.9
2023-03-20T19:45:06.195Z,46.4
2023-03-20T19:50:06.638Z,58.7
2023-03-20T19:55:06.880Z,95.5
2023-03-20T20:00:06.250Z,109.6
2023-03-20T20:05:06.399Z,51.5
2023-03-20T20:10:06.771Z,80.8
2023-03-20T20:15:06.171Z,48
2023-03-20T20:20:06.433Z,99.4
2023-03-20T20:25:06.875Z,85.5
2023-03-20T20:30:06.272Z,97.4
2023-03-20T20:35:06.617Z,75.3
2023-03-20T20:40:06.243Z,67.2
2023-03-20T20:45:06.722Z,62.7
2023-03-20T20:50:06.137Z,53.7
2023-03-20T20:55:06.452Z,53.1
2023-03-20T21:00:06.917Z,47.5
2023-03-20T21:05:06.963Z,59.9
2023-03-20T21:10:06.258Z,44.3
2023-03-20T21:15:06.561Z,56.7
2023-03-20T21:20:06.824Z,51.5
2023-03-20T21:25:07.068Z,66.9
2023-03-20T21:30:06.964Z,59.8
2023-03-20T21:35:06.275Z,81.6
2023-03-20T21:40:06.191Z,107.6
2023-03-20T21:45:06.667Z,100.1
2023-03-20T21:50:06.134Z,73.1
2023-03-20T21:55:06.181Z,56.8
2023-03-20T22:05:06.283Z,43.4
2023-03-20T22:10:06.792Z,57.1
2023-03-20T22:15:06.654Z,74.5
2023-03-20T22:20:06.359Z,105.2
2023-03-20T22:25:06.243Z,85
2023-03-20T22:30:06.828Z,80.4
2023-03-20T22:35:06.260Z,51.6
2023-03-20T22:40:06.887Z,45.1
2023-03-20T22:45:06.171Z,43.4
2023-03-20T22:50:06.502Z,33.5
2023-03-20T22:55:06.782Z,42.8
2023-03-20T23:00:06.413Z,40.6
2023-03-20T23:05:06.599Z,55.2
2023-03-20T23:10:06.747Z,50.5
2023-03-20T23:15:06.079Z,80.1
2023-03-20T23:20:06.425Z,52.8
2023-03-20T23:25:06.869Z,72.3
2023-03-20T23:30:06.487Z,62.1
2023-03-20T23:35:06.754Z,59
2023-03-20T23:40:07.037Z,67.9
2023-03-20T23:45:06.386Z,54.8
2023-03-20T23:50:06.713Z,52.7
2023-03-20T23:55:06.759Z,58.4
